Time;durP1;ratioP1;P1;durP2;ratioP2;P2;SDS_P1;SDS_P2;PMS_P1;PMS_P2;Temp;Humidity;BMP_temperature;BMP_pressure;BME280_temperature;BME280_humidity;BME280_pressure;Samples;Min_cycle;Max_cycle;Signal;HPM_P1;HPM_P2
2023/03/06 00:00:44;;;;;;;2.60;1.40;;;16.70;65.10;;;;;;4994952;28;20022;-70
2023/03/06 00:03:09;;;;;;;1.55;1.30;;;16.70;65.20;;;;;;4995381;28;20038;-71
2023/03/06 00:05:35;;;;;;;3.92;1.50;;;16.70;66.30;;;;;;4994899;28;20022;-71
2023/03/06 00:08:01;;;;;;;2.63;1.40;;;16.70;65.30;;;;;;4994867;28;20027;-71
2023/03/06 00:10:27;;;;;;;1.45;1.35;;;16.60;65.30;;;;;;4994946;28;20061;-70
2023/03/06 00:12:54;;;;;;;1.83;1.20;;;16.60;65.30;;;;;;4994963;28;20056;-70
2023/03/06 00:15:20;;;;;;;1.40;1.25;;;16.60;65.30;;;;;;4994845;28;20014;-70
2023/03/06 00:17:46;;;;;;;1.40;1.30;;;16.60;65.40;;;;;;4983767;28;20026;-70
2023/03/06 00:20:12;;;;;;;1.58;1.48;;;16.60;65.30;;;;;;4976469;28;20556;-70
2023/03/06 00:22:38;;;;;;;3.53;1.92;;;16.60;65.50;;;;;;4969713;28;20085;-70
2023/03/06 00:25:04;;;;;;;2.03;1.40;;;16.60;65.70;;;;;;4978498;28;20019;-70
2023/03/06 00:27:30;;;;;;;3.05;1.67;;;16.60;65.70;;;;;;4993815;28;20479;-70
2023/03/06 00:29:57;;;;;;;1.80;1.27;;;16.60;65.70;;;;;;4992745;28;20097;-71
2023/03/06 00:32:23;;;;;;;4.50;1.42;;;16.60;65.70;;;;;;4994066;28;20123;-70
2023/03/06 00:34:49;;;;;;;2.95;1.60;;;16.50;65.80;;;;;;4993924;28;20058;-70
2023/03/06 00:37:15;;;;;;;1.73;1.50;;;16.50;65.80;;;;;;4993898;28;20065;-70
2023/03/06 00:39:40;;;;;;;2.25;1.15;;;16.50;66.00;;;;;;4994057;28;20054;-70
2023/03/06 00:42:06;;;;;;;1.70;1.60;;;16.50;66.00;;;;;;4994071;28;20030;-70
2023/03/06 00:44:32;;;;;;;2.28;1.20;;;16.50;66.00;;;;;;4993993;28;20381;-70
2023/03/06 00:46:57;;;;;;;1.30;1.20;;;16.50;65.90;;;;;;4995045;28;20033;-70
2023/03/06 00:49:23;;;;;;;2.92;1.15;;;16.50;65.90;;;;;;4977456;28;20098;-70
2023/03/06 00:51:49;;;;;;;2.53;1.45;;;16.50;65.90;;;;;;4993591;28;20026;-70
2023/03/06 00:54:14;;;;;;;3.10;1.60;;;16.40;65.90;;;;;;4995070;28;20026;-70
2023/03/06 00:56:40;;;;;;;4.10;1.60;;;16.40;65.90;;;;;;4994753;28;20031;-70
2023/03/06 00:59:05;;;;;;;2.55;1.42;;;16.40;65.90;;;;;;4994931;28;20031;-71
2023/03/06 01:01:31;;;;;;;2.90;1.55;;;16.40;66.10;;;;;;4994811;28;20052;-70
2023/03/06 01:03:57;;;;;;;1.42;1.30;;;16.40;66.00;;;;;;4994688;28;20495;-71
2023/03/06 01:06:22;;;;;;;1.30;1.20;;;16.40;66.00;;;;;;4977284;28;20031;-70
2023/03/06 01:08:48;;;;;;;2.65;1.42;;;16.40;67.10;;;;;;4993127;28;20022;-70
2023/03/06 01:11:14;;;;;;;1.77;1.65;;;16.40;66.30;;;;;;4993306;28;20400;-70
2023/03/06 01:13:39;;;;;;;3.25;1.30;;;16.30;66.30;;;;;;4994831;28;20106;-70
2023/03/06 01:16:07;;;;;;;2.90;1.63;;;16.40;66.40;;;;;;4993222;28;20109;-70
2023/03/06 01:18:33;;;;;;;1.40;1.30;;;16.30;66.30;;;;;;4977290;28;20026;-70
2023/03/06 01:20:58;;;;;;;2.38;1.65;;;16.30;66.20;;;;;;4992795;28;20072;-70
2023/03/06 01:23:24;;;;;;;1.75;1.30;;;16.30;66.30;;;;;;4994199;28;20058;-70
2023/03/06 01:25:49;;;;;;;2.17;1.70;;;16.30;66.20;;;;;;4994127;28;20041;-70
2023/03/06 01:28:15;;;;;;;2.47;1.40;;;16.30;66.30;;;;;;4994338;28;20033;-70
2023/03/06 01:30:41;;;;;;;1.75;1.40;;;16.30;66.40;;;;;;4976790;28;20085;-70
2023/03/06 01:33:06;;;;;;;3.58;1.38;;;16.30;66.40;;;;;;4993080;28;20022;-70
2023/03/06 01:35:32;;;;;;;2.90;1.70;;;16.30;66.40;;;;;;4993959;28;20053;-70
2023/03/06 01:37:57;;;;;;;1.58;1.35;;;16.30;66.40;;;;;;4993750;28;20019;-70
2023/03/06 01:40:23;;;;;;;1.20;1.10;;;16.30;66.30;;;;;;4992974;28;20105;-70
2023/03/06 01:42:49;;;;;;;1.88;1.42;;;16.20;66.20;;;;;;4993917;28;20102;-70
2023/03/06 01:45:14;;;;;;;1.40;1.20;;;16.20;66.30;;;;;;4992750;28;20098;-71
2023/03/06 01:47:40;;;;;;;2.15;1.30;;;16.30;66.30;;;;;;4993691;28;20518;-70
2023/03/06 01:50:07;;;;;;;1.30;1.20;;;16.30;66.30;;;;;;4992498;28;20023;-70
2023/03/06 01:52:46;;;;;;;3.30;1.30;;;16.20;66.30;;;;;;4992524;28;20025;-70
2023/03/06 01:55:17;;;;;;;2.88;1.30;;;16.20;66.30;;;;;;4994087;28;20106;-70
2023/03/06 01:57:44;;;;;;;1.92;1.48;;;16.20;66.40;;;;;;4992554;28;20499;-70
2023/03/06 02:00:12;;;;;;;2.05;1.63;;;16.20;66.50;;;;;;4992502;28;20500;-70
2023/03/06 02:02:39;;;;;;;2.08;1.60;;;16.20;66.50;;;;;;4992328;28;20030;-70
2023/03/06 02:05:05;;;;;;;1.70;1.35;;;16.20;66.50;;;;;;4992187;28;20113;-70
2023/03/06 02:07:30;;;;;;;1.50;1.30;;;16.20;66.60;;;;;;4992415;28;20024;-70
2023/03/06 02:09:56;;;;;;;1.60;1.50;;;16.20;66.60;;;;;;4991921;28;20474;-71
2023/03/06 02:12:22;;;;;;;1.90;1.38;;;16.10;66.50;;;;;;4992342;28;20461;-70
2023/03/06 02:14:47;;;;;;;2.13;1.33;;;16.10;66.50;;;;;;4992196;28;20517;-70
2023/03/06 02:17:14;;;;;;;1.70;1.50;;;16.10;66.50;;;;;;4991987;28;20061;-70
2023/03/06 02:19:51;;;;;;;1.23;1.13;;;16.10;66.60;;;;;;4975842;28;20416;-70
2023/03/06 02:22:17;;;;;;;1.42;1.33;;;16.10;66.60;;;;;;4993276;28;20042;-70
2023/03/06 02:24:51;;;;;;;1.08;1.08;;;16.10;66.60;;;;;;4992011;28;20088;-70
2023/03/06 02:27:16;;;;;;;1.50;1.40;;;16.10;66.70;;;;;;4992149;28;20392;-70
2023/03/06 02:29:42;;;;;;;1.63;1.40;;;16.10;66.70;;;;;;4975711;28;20034;-70
2023/03/06 02:32:08;;;;;;;2.17;1.27;;;16.10;66.60;;;;;;4991916;28;20029;-70
2023/03/06 02:34:38;;;;;;;2.75;1.30;;;16.00;66.70;;;;;;4993252;28;20046;-70
2023/03/06 02:37:08;;;;;;;1.95;1.35;;;16.00;66.80;;;;;;4993188;28;20526;-70
2023/03/06 02:39:34;;;;;;;1.50;1.40;;;16.00;66.80;;;;;;4991768;28;20026;-70
2023/03/06 02:42:00;;;;;;;1.90;1.45;;;16.00;66.70;;;;;;4991719;28;20365;-70
2023/03/06 02:44:26;;;;;;;2.97;1.60;;;16.00;66.70;;;;;;4991934;28;20093;-70
2023/03/06 02:46:51;;;;;;;1.85;1.10;;;16.00;66.90;;;;;;4991550;28;20035;-70
2023/03/06 02:49:17;;;;;;;1.42;1.23;;;16.00;67.00;;;;;;4991844;28;20077;-70
2023/03/06 02:51:43;;;;;;;1.40;1.30;;;16.00;66.90;;;;;;4993058;28;20034;-70
2023/03/06 02:54:09;;;;;;;2.55;1.40;;;16.00;67.10;;;;;;4999437;28;20022;-70
2023/03/06 02:56:35;;;;;;;2.33;1.20;;;16.00;67.10;;;;;;4998092;28;20113;-70
2023/03/06 02:59:01;;;;;;;1.52;1.35;;;15.90;67.10;;;;;;4998312;28;20117;-70
2023/03/06 03:01:26;;;;;;;2.22;1.17;;;15.90;67.00;;;;;;4998033;28;20026;-70
2023/03/06 03:03:52;;;;;;;2.25;1.52;;;15.90;67.00;;;;;;4998125;28;20026;-70
2023/03/06 03:06:18;;;;;;;2.40;1.40;;;15.90;67.10;;;;;;4998402;28;20046;-70
2023/03/06 03:08:43;;;;;;;1.50;1.40;;;15.90;67.10;;;;;;4997970;28;20026;-70
2023/03/06 03:11:09;;;;;;;1.20;1.10;;;15.90;67.00;;;;;;4999334;28;20053;-71
2023/03/06 03:13:36;;;;;;;1.42;1.30;;;15.90;67.10;;;;;;4998071;28;20038;-70
2023/03/06 03:16:06;;;;;;;1.50;1.40;;;15.90;67.00;;;;;;4998839;28;20022;-70
2023/03/06 03:18:32;;;;;;;1.60;1.27;;;15.90;67.10;;;;;;4998069;28;20026;-71
2023/03/06 03:20:58;;;;;;;1.40;1.30;;;15.90;67.00;;;;;;4997984;28;20045;-70
2023/03/06 03:23:24;;;;;;;1.45;1.35;;;15.90;67.00;;;;;;4997954;28;20424;-70
2023/03/06 03:25:49;;;;;;;2.17;1.23;;;15.90;67.00;;;;;;4997918;28;20049;-70
2023/03/06 03:28:15;;;;;;;3.13;1.48;;;15.80;67.00;;;;;;4997939;28;20018;-70
2023/03/06 03:30:41;;;;;;;1.60;1.25;;;15.80;67.10;;;;;;4997863;28;20054;-70
2023/03/06 03:33:07;;;;;;;1.45;1.25;;;15.80;67.10;;;;;;4997965;28;20077;-70
2023/03/06 03:35:32;;;;;;;1.83;1.30;;;15.80;67.00;;;;;;4997936;28;20485;-70
2023/03/06 03:37:58;;;;;;;1.60;1.50;;;15.80;67.00;;;;;;4998953;28;20013;-70
2023/03/06 03:40:24;;;;;;;1.50;1.15;;;15.80;67.20;;;;;;4981650;28;20061;-70
2023/03/06 03:42:49;;;;;;;1.33;1.23;;;15.80;67.20;;;;;;4997835;28;20024;-70
2023/03/06 03:45:15;;;;;;;1.83;1.58;;;15.80;67.20;;;;;;4997643;28;20026;-70
2023/03/06 03:47:41;;;;;;;2.20;1.33;;;15.80;67.20;;;;;;4981476;28;20027;-70
2023/03/06 03:50:07;;;;;;;1.60;1.10;;;15.80;67.40;;;;;;4998787;28;20030;-70
2023/03/06 03:52:33;;;;;;;1.30;1.20;;;15.80;67.60;;;;;;4998964;28;20022;-70
2023/03/06 03:54:58;;;;;;;2.30;1.17;;;15.80;67.60;;;;;;4997727;28;20026;-70
2023/03/06 03:57:24;;;;;;;3.47;1.33;;;15.80;67.50;;;;;;4997795;28;20022;-70
2023/03/06 03:59:50;;;;;;;2.58;1.45;;;15.70;67.50;;;;;;4997483;28;20030;-70
2023/03/06 04:02:15;;;;;;;1.48;1.38;;;15.70;67.50;;;;;;4997675;28;20022;-70
2023/03/06 04:04:41;;;;;;;1.73;1.60;;;15.70;67.50;;;;;;4995084;28;20023;-71
2023/03/06 04:07:08;;;;;;;1.48;1.27;;;15.70;67.50;;;;;;4994583;28;20109;-70
2023/03/06 04:09:33;;;;;;;2.17;1.20;;;15.70;67.60;;;;;;4994332;28;20015;-70
2023/03/06 04:11:59;;;;;;;1.58;1.48;;;15.70;67.60;;;;;;4995547;28;20022;-71
2023/03/06 04:14:25;;;;;;;1.33;1.23;;;15.70;67.60;;;;;;4995618;28;20041;-70
2023/03/06 04:16:50;;;;;;;1.60;1.30;;;15.70;67.60;;;;;;4995460;28;20033;-70
2023/03/06 04:19:16;;;;;;;1.98;1.40;;;15.70;67.70;;;;;;4994290;28;20035;-70
2023/03/06 04:21:42;;;;;;;1.45;1.35;;;15.70;67.70;;;;;;4995415;28;20026;-70
2023/03/06 04:24:07;;;;;;;1.88;1.20;;;15.70;67.80;;;;;;4995265;28;20064;-70
2023/03/06 04:26:34;;;;;;;1.58;1.20;;;15.60;67.70;;;;;;4994263;28;20034;-70
2023/03/06 04:29:00;;;;;;;1.23;1.13;;;15.70;67.70;;;;;;4993931;28;20026;-70
2023/03/06 04:31:26;;;;;;;1.52;1.27;;;15.70;67.80;;;;;;4977915;28;20031;-70
2023/03/06 04:33:51;;;;;;;1.92;1.10;;;15.70;67.80;;;;;;4995170;28;20109;-70
2023/03/06 04:36:31;;;;;;;2.05;1.10;;;15.60;67.70;;;;;;4995144;28;20110;-71
2023/03/06 04:38:56;;;;;;;1.73;1.20;;;15.60;67.70;;;;;;4993946;28;20023;-70
2023/03/06 04:41:22;;;;;;;1.40;1.30;;;15.60;67.70;;;;;;4994093;28;20026;-70
2023/03/06 04:43:48;;;;;;;1.40;1.27;;;15.60;67.70;;;;;;4993805;28;20026;-70
2023/03/06 04:46:13;;;;;;;1.30;1.20;;;15.60;67.70;;;;;;4993589;28;20098;-70
2023/03/06 04:48:39;;;;;;;1.42;1.33;;;15.60;67.70;;;;;;4995116;28;20109;-70
2023/03/06 04:51:05;;;;;;;2.78;1.30;;;15.60;67.70;;;;;;4993835;28;20065;-71
2023/03/06 04:53:31;;;;;;;1.17;1.08;;;15.60;67.70;;;;;;4993739;28;20050;-70
2023/03/06 04:55:57;;;;;;;2.00;1.42;;;15.60;67.80;;;;;;4994841;28;20081;-70
2023/03/06 04:58:23;;;;;;;1.33;1.23;;;15.60;67.90;;;;;;4994558;28;20026;-70
2023/03/06 05:00:49;;;;;;;1.40;1.30;;;15.60;67.90;;;;;;4993633;28;20034;-70
2023/03/06 05:03:14;;;;;;;1.23;1.13;;;15.60;67.90;;;;;;4994688;28;20153;-70
2023/03/06 05:05:40;;;;;;;1.90;1.33;;;15.50;67.80;;;;;;4993495;28;20026;-71
2023/03/06 05:08:06;;;;;;;2.25;1.52;;;15.50;67.80;;;;;;4994661;28;20026;-70
2023/03/06 05:10:32;;;;;;;1.40;1.30;;;15.50;67.90;;;;;;4993270;28;20041;-70
2023/03/06 05:12:57;;;;;;;1.67;1.30;;;15.50;68.00;;;;;;4976839;28;20031;-70
2023/03/06 05:15:23;;;;;;;1.08;0.98;;;15.50;67.90;;;;;;4994271;28;20030;-70
2023/03/06 05:17:48;;;;;;;1.15;1.00;;;15.50;68.00;;;;;;4993226;28;20121;-70
2023/03/06 05:20:14;;;;;;;3.08;1.50;;;15.50;67.90;;;;;;4993142;28;20026;-70
2023/03/06 05:22:40;;;;;;;1.33;1.23;;;15.50;67.90;;;;;;4992949;28;20050;-70
2023/03/06 05:25:06;;;;;;;1.20;1.10;;;15.50;68.00;;;;;;4993119;28;20030;-70
2023/03/06 05:27:32;;;;;;;1.38;1.27;;;15.50;67.90;;;;;;4992973;28;20026;-70
2023/03/06 05:29:58;;;;;;;1.20;1.10;;;15.50;67.90;;;;;;4992536;28;20104;-70
2023/03/06 05:32:23;;;;;;;1.58;1.00;;;15.50;67.90;;;;;;4976932;28;20026;-70
2023/03/06 05:34:49;;;;;;;1.45;1.25;;;15.50;67.90;;;;;;4994130;28;20026;-70
2023/03/06 05:37:15;;;;;;;1.60;1.08;;;15.50;67.90;;;;;;4992731;28;20058;-70
2023/03/06 05:39:41;;;;;;;1.27;1.17;;;15.50;68.00;;;;;;4976608;28;20409;-70
2023/03/06 05:42:07;;;;;;;1.58;1.20;;;15.40;68.00;;;;;;4993564;28;20076;-70
2023/03/06 05:44:33;;;;;;;1.20;1.10;;;15.40;69.20;;;;;;4992855;28;20026;-70
2023/03/06 05:46:59;;;;;;;1.45;1.35;;;15.40;68.30;;;;;;4976586;28;20486;-70
2023/03/06 05:49:24;;;;;;;1.20;1.10;;;15.40;68.30;;;;;;4992626;28;20117;-70
2023/03/06 05:51:50;;;;;;;1.20;1.10;;;15.40;68.20;;;;;;4992828;28;20046;-69
2023/03/06 05:54:16;;;;;;;1.73;1.10;;;15.40;68.20;;;;;;4993652;28;20493;-70
2023/03/06 05:56:41;;;;;;;1.00;1.00;;;15.40;68.30;;;;;;4992484;28;20105;-70
2023/03/06 05:59:07;;;;;;;1.20;1.08;;;15.40;68.20;;;;;;4993681;28;20408;-70
2023/03/06 06:01:33;;;;;;;1.80;1.00;;;15.40;68.30;;;;;;4992432;28;20034;-70
2023/03/06 06:03:58;;;;;;;1.73;1.30;;;15.40;68.30;;;;;;4992420;28;20481;-70
2023/03/06 06:06:24;;;;;;;1.60;1.30;;;15.40;68.20;;;;;;4976066;28;20026;-70
2023/03/06 06:08:50;;;;;;;1.15;1.05;;;15.40;68.30;;;;;;4993344;28;20022;-70
2023/03/06 06:11:17;;;;;;;1.20;1.10;;;15.30;68.30;;;;;;4959657;28;20148;-70
2023/03/06 06:13:43;;;;;;;1.83;1.30;;;15.30;68.30;;;;;;4992257;28;20377;-70
2023/03/06 06:16:14;;;;;;;1.42;1.20;;;15.30;68.20;;;;;;4993265;28;20030;-70
2023/03/06 06:18:40;;;;;;;1.45;1.10;;;15.30;68.20;;;;;;4992233;28;20033;-70
2023/03/06 06:21:06;;;;;;;2.03;1.10;;;15.30;68.30;;;;;;4992164;28;20030;-70
2023/03/06 06:23:32;;;;;;;1.42;1.33;;;15.30;68.50;;;;;;4991995;28;20503;-70
2023/03/06 06:26:02;;;;;;;1.95;1.27;;;15.30;68.50;;;;;;4991679;28;20030;-70
2023/03/06 06:28:28;;;;;;;1.30;1.20;;;15.30;68.50;;;;;;4991213;28;20018;-70
2023/03/06 06:30:53;;;;;;;3.80;1.10;;;15.30;68.50;;;;;;4992228;28;20034;-70
2023/03/06 06:33:19;;;;;;;1.25;1.10;;;15.30;68.50;;;;;;4976370;28;20033;-70
2023/03/06 06:35:45;;;;;;;0.90;0.90;;;15.30;68.60;;;;;;4993864;28;20018;-70
2023/03/06 06:38:10;;;;;;;2.05;1.00;;;15.30;68.70;;;;;;4993364;28;20030;-70
2023/03/06 06:40:36;;;;;;;2.58;1.08;;;15.30;68.80;;;;;;4976503;28;20022;-69
2023/03/06 06:43:01;;;;;;;0.93;0.93;;;15.30;68.70;;;;;;4993577;28;20421;-70
2023/03/06 06:45:27;;;;;;;1.27;1.17;;;15.30;68.30;;;;;;4993572;28;20552;-69
2023/03/06 06:47:53;;;;;;;1.67;1.27;;;15.30;67.00;;;;;;4993240;28;20084;-69
2023/03/06 06:50:18;;;;;;;2.13;0.90;;;15.30;66.20;;;;;;4993324;28;20101;-69
2023/03/06 06:52:44;;;;;;;2.67;1.20;;;15.30;65.50;;;;;;4991997;28;20026;-69
2023/03/06 06:55:10;;;;;;;2.63;1.15;;;15.30;65.30;;;;;;4992338;28;20023;-69
2023/03/06 06:57:36;;;;;;;1.05;0.85;;;15.40;65.10;;;;;;4992479;28;20037;-69
2023/03/06 07:00:03;;;;;;;0.90;0.90;;;15.40;64.90;;;;;;4992157;28;20022;-69
2023/03/06 07:02:28;;;;;;;1.02;0.95;;;15.40;64.60;;;;;;4993731;28;20031;-69
2023/03/06 07:04:54;;;;;;;1.10;1.00;;;15.40;64.50;;;;;;4993358;28;20030;-70
2023/03/06 07:07:20;;;;;;;1.08;0.93;;;15.40;64.50;;;;;;4991668;28;20385;-70
2023/03/06 07:09:45;;;;;;;0.80;0.80;;;15.40;64.30;;;;;;4992115;28;20037;-70
2023/03/06 07:12:11;;;;;;;1.00;0.80;;;15.40;64.20;;;;;;4991459;28;20033;-70
2023/03/06 07:14:38;;;;;;;1.33;1.10;;;15.40;64.00;;;;;;4993023;28;20023;-69
2023/03/06 07:17:04;;;;;;;1.15;1.10;;;15.50;64.00;;;;;;4991252;28;20122;-70
2023/03/06 07:19:30;;;;;;;1.13;0.88;;;15.50;63.80;;;;;;4991687;28;20024;-70
2023/03/06 07:21:55;;;;;;;2.35;0.90;;;15.50;63.80;;;;;;4991377;28;20109;-69
2023/03/06 07:24:21;;;;;;;1.95;0.80;;;15.50;63.80;;;;;;4990231;28;20437;-69
2023/03/06 07:26:47;;;;;;;1.45;0.85;;;15.50;63.60;;;;;;4990139;28;20033;-69
2023/03/06 07:29:13;;;;;;;1.00;0.90;;;15.50;63.70;;;;;;4989901;28;20014;-69
2023/03/06 07:31:39;;;;;;;33.15;5.53;;;15.50;63.70;;;;;;4990399;28;20101;-69
2023/03/06 07:34:04;;;;;;;28.55;6.20;;;15.50;64.20;;;;;;4970609;28;20106;-69
2023/03/06 07:36:30;;;;;;;28.63;5.55;;;15.50;65.10;;;;;;4971190;28;20039;-69
2023/03/06 07:38:55;;;;;;;21.70;4.28;;;15.60;65.90;;;;;;4973470;28;20058;-69
2023/03/06 07:41:21;;;;;;;20.10;4.07;;;15.60;66.20;;;;;;4975329;28;20023;-69
2023/03/06 07:43:47;;;;;;;21.23;4.32;;;15.60;66.40;;;;;;4974017;28;20528;-68
2023/03/06 07:46:13;;;;;;;14.43;3.80;;;15.60;66.50;;;;;;4974554;28;20050;-69
2023/03/06 07:48:39;;;;;;;15.75;3.10;;;15.70;66.50;;;;;;4959215;28;20049;-69
2023/03/06 07:51:11;;;;;;;17.23;3.75;;;15.70;66.30;;;;;;4974924;28;20490;-69
2023/03/06 07:53:36;;;;;;;13.25;3.47;;;15.70;66.20;;;;;;4958100;28;20034;-69
2023/03/06 07:56:07;;;;;;;11.73;3.60;;;15.70;66.10;;;;;;4975350;28;20034;-70
2023/03/06 07:58:33;;;;;;;14.48;3.03;;;15.70;66.00;;;;;;4976190;28;20022;-69
2023/03/06 08:01:03;;;;;;;13.63;3.22;;;15.70;65.80;;;;;;4975394;28;20041;-69
2023/03/06 08:03:28;;;;;;;6.57;2.67;;;15.70;65.70;;;;;;4976136;28;20019;-69
2023/03/06 08:06:02;;;;;;;16.08;3.08;;;15.70;65.70;;;;;;4984668;28;20034;-69
2023/03/06 08:08:28;;;;;;;11.50;3.22;;;15.80;65.60;;;;;;4986322;28;20019;-69
2023/03/06 08:10:54;;;;;;;7.53;2.85;;;15.70;65.50;;;;;;4994228;28;20022;-69
2023/03/06 08:13:19;;;;;;;16.55;3.50;;;15.70;65.40;;;;;;4995548;28;20050;-69
2023/03/06 08:15:48;;;;;;;9.02;2.78;;;15.80;65.40;;;;;;4995634;28;20393;-69
2023/03/06 08:18:14;;;;;;;8.75;2.97;;;15.80;65.30;;;;;;4995603;28;20045;-69
2023/03/06 08:20:39;;;;;;;9.10;2.47;;;15.80;65.20;;;;;;4989912;28;20389;-70
2023/03/06 08:23:05;;;;;;;8.60;2.75;;;15.80;65.10;;;;;;4976092;28;20051;-69
2023/03/06 08:25:30;;;;;;;10.90;2.72;;;15.80;65.10;;;;;;4974671;28;20042;-69
2023/03/06 08:27:56;;;;;;;9.43;2.65;;;15.80;65.10;;;;;;4974793;28;20037;-69
2023/03/06 08:30:22;;;;;;;7.90;2.47;;;15.80;65.00;;;;;;4974746;28;20023;-70
2023/03/06 08:32:47;;;;;;;6.60;2.30;;;15.80;65.00;;;;;;4974711;28;20023;-70
2023/03/06 08:35:13;;;;;;;6.15;2.25;;;15.80;65.00;;;;;;4975684;28;20028;-70
2023/03/06 08:37:39;;;;;;;7.40;2.50;;;15.80;64.90;;;;;;4963036;28;20022;-70
2023/03/06 08:40:05;;;;;;;7.93;2.38;;;15.80;65.00;;;;;;4995033;28;20057;-70
2023/03/06 08:42:31;;;;;;;11.80;2.80;;;15.80;64.90;;;;;;4995074;28;20026;-70
2023/03/06 08:44:57;;;;;;;4.68;2.03;;;15.80;64.90;;;;;;4993903;28;20030;-70
2023/03/06 08:47:22;;;;;;;5.18;2.20;;;15.80;64.90;;;;;;4993552;28;20031;-69
2023/03/06 08:49:48;;;;;;;5.47;2.17;;;15.80;64.90;;;;;;4994258;28;20034;-70
2023/03/06 08:52:15;;;;;;;6.70;2.25;;;15.80;64.80;;;;;;4993828;28;20022;-70
2023/03/06 08:54:41;;;;;;;7.22;2.08;;;15.80;64.80;;;;;;4993709;28;20026;-70
2023/03/06 08:57:08;;;;;;;6.30;1.98;;;15.80;64.80;;;;;;4977586;28;20424;-70
2023/03/06 08:59:34;;;;;;;5.30;1.70;;;15.80;64.80;;;;;;4993509;28;20030;-70
2023/03/06 09:02:00;;;;;;;4.22;2.00;;;15.80;64.70;;;;;;4994865;28;20095;-70
2023/03/06 09:04:28;;;;;;;4.75;1.95;;;15.80;64.60;;;;;;4993155;28;20030;-70
2023/03/06 09:06:53;;;;;;;4.18;2.22;;;15.80;64.70;;;;;;4993535;28;20515;-70
2023/03/06 09:09:19;;;;;;;4.55;1.88;;;15.80;64.60;;;;;;4994664;28;20022;-70
2023/03/06 09:11:44;;;;;;;6.05;1.70;;;15.80;64.60;;;;;;4994457;28;20022;-70
2023/03/06 09:14:10;;;;;;;5.47;2.42;;;15.80;64.60;;;;;;4994430;28;20030;-70
2023/03/06 09:16:36;;;;;;;5.20;1.85;;;15.80;64.50;;;;;;4994581;28;20387;-70
2023/03/06 09:19:01;;;;;;;3.35;1.85;;;15.80;64.40;;;;;;4993037;28;20035;-70
2023/03/06 09:21:27;;;;;;;4.38;1.90;;;15.80;64.40;;;;;;4993035;28;20030;-70
2023/03/06 09:23:53;;;;;;;4.85;1.70;;;15.80;64.30;;;;;;4993007;28;20125;-70
2023/03/06 09:26:18;;;;;;;3.38;1.70;;;15.80;64.30;;;;;;4976654;28;20058;-70
2023/03/06 09:28:44;;;;;;;2.80;1.70;;;15.80;64.30;;;;;;4993179;28;20030;-70
2023/03/06 09:31:11;;;;;;;2.55;1.80;;;15.80;64.30;;;;;;4994244;28;20096;-70
2023/03/06 09:33:37;;;;;;;5.05;1.60;;;15.80;64.20;;;;;;4992661;28;20019;-70
2023/03/06 09:36:02;;;;;;;3.63;1.70;;;15.80;64.20;;;;;;4992989;28;20026;-70
2023/03/06 09:38:28;;;;;;;4.43;1.95;;;15.80;64.20;;;;;;4992979;28;20026;-70
2023/03/06 09:40:57;;;;;;;3.47;1.55;;;15.80;64.10;;;;;;4993941;28;20382;-70
2023/03/06 09:43:34;;;;;;;1.90;1.35;;;15.80;64.00;;;;;;4993848;28;20026;-70
2023/03/06 09:46:05;;;;;;;2.97;1.25;;;15.80;64.00;;;;;;4976397;28;20022;-70
2023/03/06 09:48:53;;;;;;;2.50;1.75;;;15.80;63.90;;;;;;4992576;28;20393;-69
2023/03/06 09:51:20;;;;;;;4.72;1.60;;;15.80;63.90;;;;;;4992872;28;20026;-70
2023/03/06 09:53:54;;;;;;;2.85;1.52;;;15.80;63.90;;;;;;4992731;28;20033;-70
2023/03/06 09:56:21;;;;;;;2.53;1.10;;;15.80;64.00;;;;;;4993682;28;20026;-70
2023/03/06 09:58:55;;;;;;;4.45;1.52;;;15.80;63.90;;;;;;4992695;28;20034;-70
2023/03/06 10:01:33;;;;;;;4.20;1.40;;;15.80;63.90;;;;;;4991563;28;20030;-70
2023/03/06 10:04:10;;;;;;;3.75;1.63;;;15.80;63.90;;;;;;4992557;28;20101;-70
2023/03/06 10:06:43;;;;;;;2.17;1.30;;;15.80;63.80;;;;;;4991989;28;20022;-70
2023/03/06 10:09:17;;;;;;;2.67;1.40;;;15.80;63.70;;;;;;4992552;28;20026;-70
2023/03/06 10:11:59;;;;;;;2.70;1.45;;;15.80;63.70;;;;;;4992225;28;20010;-70
2023/03/06 10:14:39;;;;;;;1.73;1.20;;;15.80;63.60;;;;;;4976210;28;20026;-70
2023/03/06 10:17:15;;;;;;;1.95;1.13;;;15.80;63.60;;;;;;4992157;28;20034;-70
2023/03/06 10:19:41;;;;;;;1.67;1.30;;;15.80;63.60;;;;;;4992104;28;20026;-70
2023/03/06 10:22:22;;;;;;;3.10;1.20;;;15.80;63.60;;;;;;4991994;28;20508;-70
2023/03/06 10:25:10;;;;;;;1.42;1.10;;;15.80;63.60;;;;;;4992087;28;20030;-70
2023/03/06 10:27:56;;;;;;;4.47;1.48;;;15.80;63.60;;;;;;4991840;28;20026;-70
2023/03/06 10:30:41;;;;;;;2.72;1.15;;;15.80;63.50;;;;;;4991924;28;20026;-70
2023/03/06 10:33:54;;;;;;;1.63;1.20;;;15.80;63.50;;;;;;4993348;28;20022;-70
2023/03/06 10:36:20;;;;;;;;;;;15.80;63.50;;;;;;4991230;28;20073;-70
2023/03/06 10:38:47;;;;;;;1.45;1.05;;;15.80;63.40;;;;;;5007441;28;19917;-70
2023/03/06 10:41:12;;;;;;;2.63;1.50;;;15.80;63.40;;;;;;5007303;28;20126;-70
2023/03/06 10:43:42;;;;;;;1.83;1.10;;;15.80;63.40;;;;;;4990968;28;20109;-70
2023/03/06 10:46:09;;;;;;;2.78;0.98;;;15.80;63.40;;;;;;4990599;28;20038;-70
2023/03/06 10:48:36;;;;;;;2.05;1.25;;;15.80;63.40;;;;;;5006767;28;20034;-70
2023/03/06 10:51:22;;;;;;;1.02;0.93;;;15.80;63.40;;;;;;4990896;28;20041;-70
2023/03/06 10:54:01;;;;;;;1.48;1.00;;;15.80;63.30;;;;;;4974696;28;20474;-70
2023/03/06 10:56:31;;;;;;;3.55;1.13;;;15.80;63.30;;;;;;5006555;28;20473;-70
2023/03/06 10:59:17;;;;;;;1.85;1.20;;;15.80;63.30;;;;;;4990863;28;20050;-69
2023/03/06 11:01:50;;;;;;;1.95;0.90;;;15.80;63.30;;;;;;4990335;28;20058;-70
2023/03/06 11:04:32;;;;;;;2.05;1.40;;;15.80;63.20;;;;;;5005518;28;20030;-70
2023/03/06 11:07:13;;;;;;;2.42;1.17;;;15.80;63.20;;;;;;4974561;28;20121;-70
2023/03/06 11:09:40;;;;;;;1.45;1.00;;;15.80;63.20;;;;;;4990689;28;20030;-70
2023/03/06 11:12:33;;;;;;;1.30;1.00;;;15.80;63.30;;;;;;4976019;28;20036;-70
2023/03/06 11:15:16;;;;;;;1.02;0.90;;;15.80;63.20;;;;;;4995463;28;20409;-70
2023/03/06 11:17:53;;;;;;;1.35;1.00;;;15.80;63.20;;;;;;4979305;28;20448;-70
2023/03/06 11:20:32;;;;;;;1.73;1.02;;;15.80;63.20;;;;;;4996499;28;20034;-70
2023/03/06 11:23:05;;;;;;;1.42;0.75;;;15.80;63.10;;;;;;4995513;28;20046;-70
2023/03/06 11:25:47;;;;;;;1.73;0.80;;;15.80;63.10;;;;;;4995242;28;20026;-70
2023/03/06 11:28:25;;;;;;;0.95;0.90;;;15.80;63.10;;;;;;4995301;28;20038;-70
2023/03/06 11:30:54;;;;;;;1.45;0.75;;;15.80;63.00;;;;;;4995224;28;20038;-70
2023/03/06 11:33:40;;;;;;;1.15;0.80;;;15.80;63.00;;;;;;4995333;28;20026;-70
2023/03/06 11:36:13;;;;;;;1.42;1.02;;;15.80;63.00;;;;;;4996250;28;20030;-70
2023/03/06 11:38:49;;;;;;;1.08;0.63;;;15.80;63.00;;;;;;4995053;28;20056;-70
2023/03/06 11:41:18;;;;;;;0.88;0.70;;;15.80;63.00;;;;;;4995049;28;20520;-70
2023/03/06 11:43:46;;;;;;;1.30;0.90;;;15.80;63.00;;;;;;4994738;28;20030;-70
2023/03/06 11:46:24;;;;;;;0.82;0.77;;;15.80;63.00;;;;;;4996061;28;20092;-70
2023/03/06 11:49:31;;;;;;;1.10;0.85;;;15.80;63.00;;;;;;4996132;28;20026;-70
2023/03/06 11:51:59;;;;;;;1.35;0.85;;;15.80;63.00;;;;;;4995026;28;20502;-70
2023/03/06 11:54:25;;;;;;;1.75;1.00;;;15.80;63.00;;;;;;4995126;28;20096;-70
2023/03/06 11:56:58;;;;;;;2.25;0.77;;;15.80;63.00;;;;;;4994795;28;20054;-70
2023/03/06 11:59:27;;;;;;;1.15;0.90;;;15.80;62.90;;;;;;4994686;28;20026;-70
2023/03/06 12:02:18;;;;;;;1.92;0.82;;;15.80;62.90;;;;;;4995899;28;20508;-70
2023/03/06 12:04:54;;;;;;;1.58;1.10;;;15.80;62.90;;;;;;4994336;28;20493;-70
2023/03/06 12:07:30;;;;;;;0.60;0.60;;;15.80;62.90;;;;;;4994547;28;20026;-70
2023/03/06 12:10:17;;;;;;;0.70;0.70;;;15.80;62.90;;;;;;4978703;28;20527;-70
2023/03/06 12:12:55;;;;;;;1.73;0.90;;;15.80;62.90;;;;;;4995236;28;20025;-70
2023/03/06 12:15:58;;;;;;;0.82;0.77;;;15.80;62.90;;;;;;4994743;28;20057;-70
2023/03/06 12:18:24;;;;;;;;;;;15.80;62.90;;;;;;4996256;28;20101;-70
2023/03/06 12:21:17;;;;;;;1.30;0.82;;;15.80;62.90;;;;;;4995458;28;20423;-70
2023/03/06 12:24:07;;;;;;;0.65;0.65;;;15.80;62.90;;;;;;4995403;28;20528;-70
2023/03/06 12:27:08;;;;;;;0.70;0.65;;;15.80;62.90;;;;;;4994567;28;20029;-70
2023/03/06 12:29:55;;;;;;;0.60;0.60;;;15.80;62.80;;;;;;4995082;28;20038;-70
2023/03/06 12:32:46;;;;;;;0.93;0.82;;;15.80;62.80;;;;;;4995465;28;20022;-70
2023/03/06 12:35:29;;;;;;;1.23;0.75;;;15.80;62.70;;;;;;5012716;28;20038;-70
2023/03/06 12:38:28;;;;;;;0.75;0.75;;;15.80;62.70;;;;;;5027921;28;20424;-70
2023/03/06 12:41:21;;;;;;;1.35;0.80;;;15.80;62.80;;;;;;5012432;28;20045;-70
2023/03/06 12:44:05;;;;;;;1.10;1.00;;;15.80;62.80;;;;;;5012479;28;20528;-69
2023/03/06 12:46:31;;;;;;;1.08;0.80;;;15.80;62.80;;;;;;5012470;28;20045;-70
2023/03/06 12:49:12;;;;;;;1.20;0.80;;;15.80;62.70;;;;;;5012310;28;20050;-70
2023/03/06 12:51:38;;;;;;;2.20;0.85;;;15.80;62.70;;;;;;5012222;28;20026;-70
2023/03/06 12:54:04;;;;;;;0.60;0.60;;;15.80;62.70;;;;;;5012444;28;20030;-70
2023/03/06 12:56:30;;;;;;;0.90;0.70;;;15.80;62.70;;;;;;4995611;28;20026;-70